createdAt,value
2019-04-14T00:00:33.704Z,101982.59
2019-04-14T00:02:42.484Z,101981.70
2019-04-14T00:04:50.749Z,101969.52
2019-04-14T00:06:59.130Z,101969.97
2019-04-14T00:09:11.762Z,101972.58
2019-04-14T00:11:19.080Z,101971.27
2019-04-14T00:13:26.334Z,101977.34
2019-04-14T00:15:38.860Z,101974.30
2019-04-14T00:17:41.393Z,101982.13
2019-04-14T00:19:48.024Z,101977.34
2019-04-14T00:21:54.682Z,101979.95
2019-04-14T00:24:01.245Z,101974.30
2019-04-14T00:26:29.364Z,101977.79
2019-04-14T00:28:36.294Z,101979.08
2019-04-14T00:30:42.968Z,101969.55
2019-04-14T00:32:55.319Z,101971.27
2019-04-14T00:35:04.297Z,101968.23
2019-04-14T00:37:16.228Z,101961.73
2019-04-14T00:39:40.088Z,101966.53
2019-04-14T00:41:55.578Z,101963.46
2019-04-14T00:44:13.173Z,101958.27
2019-04-14T00:46:21.373Z,101956.53
2019-04-14T00:48:31.924Z,101957.42
2019-04-14T00:50:40.819Z,101954.38
2019-04-14T00:52:48.031Z,101955.67
2019-04-14T00:54:54.601Z,101953.50
2019-04-14T00:57:01.481Z,101955.28
2019-04-14T00:59:09.251Z,101958.73
2019-04-14T01:01:15.628Z,101963.55
2019-04-14T01:03:22.108Z,101964.42
2019-04-14T01:05:31.781Z,101960.07
2019-04-14T01:07:37.014Z,101961.38
2019-04-14T01:09:44.210Z,101960.93
2019-04-14T01:11:51.011Z,101964.84
2019-04-14T01:13:57.697Z,101960.05
2019-04-14T01:16:11.533Z,101961.80
2019-04-14T01:18:12.886Z,101961.36
2019-04-14T01:20:19.235Z,101960.91
2019-04-14T01:22:27.000Z,101958.73
2019-04-14T01:24:33.680Z,101951.77
2019-04-14T01:26:40.189Z,101964.80
2019-04-14T01:28:46.537Z,101965.23
2019-04-14T01:30:52.998Z,101966.97
2019-04-14T01:32:59.470Z,101961.31
2019-04-14T01:35:09.546Z,101963.02
2019-04-14T01:37:16.097Z,101963.91
2019-04-14T01:39:24.217Z,101960.42
2019-04-14T01:41:30.871Z,101962.59
2019-04-14T01:43:38.569Z,101956.04
2019-04-14T01:45:58.154Z,101965.16
2019-04-14T01:47:53.856Z,101956.47
2019-04-14T01:50:01.648Z,101959.94
2019-04-14T01:52:10.237Z,101959.92
2019-04-14T01:54:17.099Z,101955.55
2019-04-14T01:56:36.716Z,101955.11
2019-04-14T01:58:57.947Z,101952.48
2019-04-14T02:01:14.840Z,101952.47
2019-04-14T02:03:21.898Z,101952.45
2019-04-14T02:05:28.354Z,101958.09
2019-04-14T02:07:36.166Z,101957.66
2019-04-14T02:09:43.148Z,101956.79
2019-04-14T02:11:50.924Z,101957.22
2019-04-14T02:13:57.803Z,101961.98
2019-04-14T02:16:16.498Z,101957.62
2019-04-14T02:18:14.303Z,101961.52
2019-04-14T02:20:22.916Z,101955.88
2019-04-14T02:22:31.173Z,101956.71
2019-04-14T02:24:38.011Z,101961.51
2019-04-14T02:26:44.375Z,101958.02
2019-04-14T02:28:52.882Z,101961.48
2019-04-14T02:31:13.959Z,101955.40
2019-04-14T02:33:41.444Z,101964.95
2019-04-14T02:35:44.878Z,101962.31
2019-04-14T02:37:58.933Z,101966.23
2019-04-14T02:40:03.853Z,101963.62
2019-04-14T02:42:17.602Z,101963.61
2019-04-14T02:46:34.116Z,101964.89
2019-04-14T02:48:52.205Z,101965.29
2019-04-14T02:50:36.975Z,101957.44
2019-04-14T02:52:51.974Z,101965.70
2019-04-14T02:54:59.545Z,101963.09
2019-04-14T02:57:15.071Z,101963.94
2019-04-14T02:59:17.207Z,101960.92
2019-04-14T03:01:39.453Z,101963.92
2019-04-14T03:03:30.575Z,101962.63
2019-04-14T03:05:45.147Z,101967.82
2019-04-14T03:07:58.128Z,101964.34
2019-04-14T03:09:53.799Z,101969.52
2019-04-14T03:14:15.578Z,101973.86
2019-04-14T03:16:29.711Z,101978.63
2019-04-14T03:21:03.957Z,101978.63
2019-04-14T03:23:21.227Z,101977.33
2019-04-14T03:25:11.598Z,101980.78
2019-04-14T03:27:48.188Z,101981.23
2019-04-14T03:29:52.191Z,101983.84
2019-04-14T03:36:43.876Z,101997.70
2019-04-14T03:38:18.344Z,102002.45
2019-04-14T03:40:28.131Z,101996.37
2019-04-14T03:44:41.420Z,101997.65
2019-04-14T03:47:05.494Z,101998.08
2019-04-14T03:49:09.417Z,101999.80
2019-04-14T03:51:10.627Z,102000.25
2019-04-14T03:53:21.459Z,101994.62
2019-04-14T03:55:16.324Z,102003.77
2019-04-14T03:57:08.556Z,101996.80
2019-04-14T03:59:15.394Z,101998.10
2019-04-14T04:01:21.975Z,102001.16
2019-04-14T04:03:28.656Z,101995.95
2019-04-14T04:05:36.771Z,102002.89
2019-04-14T04:07:45.376Z,102005.06
2019-04-14T04:09:54.065Z,102002.48
2019-04-14T04:12:01.165Z,102002.51
2019-04-14T04:14:07.636Z,102006.84
2019-04-14T04:16:17.966Z,102007.74
2019-04-14T04:18:44.206Z,102009.04
2019-04-14T04:20:52.450Z,102010.34
2019-04-14T04:23:07.354Z,102020.79
2019-04-14T04:25:22.571Z,102013.42
2019-04-14T04:27:46.504Z,102013.88
2019-04-14T04:30:13.059Z,102016.08
2019-04-14T04:32:21.182Z,102010.84
2019-04-14T04:34:42.365Z,102020.41
2019-04-14T04:37:01.831Z,102023.03
2019-04-14T04:39:23.549Z,102022.23
2019-04-14T04:41:30.450Z,102022.27
2019-04-14T04:43:37.035Z,102025.77
2019-04-14T04:45:43.783Z,102021.88
2019-04-14T04:47:51.247Z,102022.33
2019-04-14T04:49:57.857Z,102022.31
2019-04-14T04:52:04.225Z,102028.82
2019-04-14T04:54:10.977Z,102029.72
2019-04-14T04:56:18.627Z,102029.30
2019-04-14T04:58:26.271Z,102031.05
2019-04-14T05:00:33.117Z,102039.72
2019-04-14T05:02:41.815Z,102035.81
2019-04-14T05:04:48.469Z,102041.45
2019-04-14T05:07:03.503Z,102035.41
2019-04-14T05:09:12.846Z,102041.52
2019-04-14T05:11:18.893Z,102046.31
2019-04-14T05:13:27.026Z,102045.91
2019-04-14T05:15:35.833Z,102036.38
2019-04-14T05:17:45.170Z,102042.08
2019-04-14T05:19:51.958Z,102042.52
2019-04-14T05:21:58.375Z,102041.20
2019-04-14T05:24:09.279Z,102046.89
2019-04-14T05:26:15.725Z,102052.94
2019-04-14T05:28:22.473Z,102048.20
2019-04-14T05:30:30.626Z,102056.46
2019-04-14T05:32:37.039Z,102058.64
2019-04-14T05:34:43.625Z,102060.35
2019-04-14T05:36:50.606Z,102065.55
2019-04-14T05:38:58.117Z,102066.45
2019-04-14T05:41:05.054Z,102061.66
2019-04-14T05:43:12.017Z,102060.80
2019-04-14T05:45:19.755Z,102058.17
2019-04-14T05:49:44.691Z,102068.21
2019-04-14T05:51:46.397Z,102065.20
2019-04-14T05:53:54.514Z,102066.09
2019-04-14T05:56:01.444Z,102067.02
2019-04-14T05:58:09.937Z,102073.16
2019-04-14T06:00:19.049Z,102067.99
2019-04-14T06:02:29.321Z,102070.66
2019-04-14T06:04:35.625Z,102069.81
2019-04-14T06:06:42.810Z,102067.20
2019-04-14T06:08:49.179Z,102071.54
2019-04-14T06:10:55.928Z,102075.06
2019-04-14T06:13:02.408Z,102076.38
2019-04-14T06:15:09.206Z,102074.22
2019-04-14T06:17:15.728Z,102076.02
2019-04-14T06:19:36.147Z,102072.13
2019-04-14T06:21:32.367Z,102078.69
2019-04-14T06:23:40.889Z,102081.75
2019-04-14T06:25:47.359Z,102083.95
2019-04-14T06:27:54.008Z,102084.37
2019-04-14T06:30:02.718Z,102083.11
2019-04-14T06:32:22.508Z,102082.67
2019-04-14T06:34:49.049Z,102090.52
2019-04-14T06:37:01.709Z,102096.19
2019-04-14T06:39:15.386Z,102093.58
2019-04-14T06:41:22.470Z,102101.41
2019-04-14T06:43:32.521Z,102100.98
2019-04-14T06:45:39.139Z,102097.95
2019-04-14T06:47:45.658Z,102104.89
2019-04-14T06:49:53.573Z,102102.70
2019-04-14T06:52:00.020Z,102096.06
2019-04-14T06:54:07.009Z,102095.16
2019-04-14T06:56:15.098Z,102100.02
2019-04-14T06:58:23.437Z,102101.34
2019-04-14T07:00:29.460Z,102101.38
2019-04-14T07:02:36.282Z,102101.84
2019-04-14T07:04:45.246Z,102110.58
2019-04-14T07:06:51.833Z,102111.02
2019-04-14T07:08:58.486Z,102109.69
2019-04-14T07:11:05.255Z,102107.07
2019-04-14T07:13:14.005Z,102110.53
2019-04-14T07:15:20.442Z,102111.41
2019-04-14T07:17:27.436Z,102111.34
2019-04-14T07:19:33.992Z,102119.62
2019-04-14T07:21:40.840Z,102109.58
2019-04-14T07:23:47.646Z,102114.72
2019-04-14T07:25:54.207Z,102114.70
2019-04-14T07:28:01.190Z,102108.63
2019-04-14T07:30:26.289Z,102114.61
2019-04-14T07:32:45.162Z,102112.77
2019-04-14T07:34:53.452Z,102115.19
2019-04-14T07:37:02.583Z,102111.19
2019-04-14T07:39:21.128Z,102110.61
2019-04-14T07:41:38.029Z,102112.97
2019-04-14T07:43:52.383Z,102101.93
2019-04-14T07:46:06.853Z,102108.93
2019-04-14T07:48:15.129Z,102107.18
2019-04-14T07:50:26.225Z,102105.83
2019-04-14T07:52:38.615Z,102107.29
2019-04-14T07:54:50.421Z,102100.41
2019-04-14T07:57:08.635Z,102103.72
2019-04-14T07:59:28.840Z,102111.09
2019-04-14T08:01:39.667Z,102109.30
2019-04-14T08:03:53.649Z,102106.61
2019-04-14T08:06:00.913Z,102103.47
2019-04-14T08:08:07.480Z,102112.59
2019-04-14T08:10:14.779Z,102109.74
2019-04-14T08:12:21.833Z,102107.55
2019-04-14T08:14:28.687Z,102107.22
2019-04-14T08:16:36.128Z,102100.24
2019-04-14T08:18:43.361Z,102101.63
2019-04-14T08:20:50.082Z,102101.96
2019-04-14T08:22:57.881Z,102112.80
2019-04-14T08:25:10.471Z,102112.88
2019-04-14T08:27:17.620Z,102109.44
2019-04-14T08:29:25.316Z,102115.25
2019-04-14T08:31:33.448Z,102110.44
2019-04-14T08:33:50.485Z,102118.81
2019-04-14T08:35:57.379Z,102118.32
2019-04-14T08:38:04.239Z,102121.37
2019-04-14T08:40:11.169Z,102110.44
2019-04-14T08:42:17.829Z,102113.00
2019-04-14T08:44:26.989Z,102116.12
2019-04-14T08:46:45.939Z,102115.25
2019-04-14T08:48:56.122Z,102113.81
2019-04-14T08:51:03.078Z,102114.48
2019-04-14T08:53:14.469Z,102104.86
2019-04-14T08:55:22.781Z,102108.61
2019-04-14T08:57:49.314Z,102109.41
2019-04-14T08:59:57.698Z,102103.12
2019-04-14T09:02:10.005Z,102103.20
2019-04-14T09:04:34.557Z,102109.33
2019-04-14T09:06:50.279Z,102109.09
2019-04-14T09:09:00.619Z,102110.80
2019-04-14T09:11:11.463Z,102117.41
2019-04-14T09:13:18.678Z,102107.70
2019-04-14T09:15:25.571Z,102107.94
2019-04-14T09:17:32.627Z,102106.50
2019-04-14T09:19:39.879Z,102113.86
2019-04-14T09:21:46.517Z,102114.27
2019-04-14T09:23:56.738Z,102109.48
2019-04-14T09:26:03.632Z,102108.08
2019-04-14T09:28:10.729Z,102117.20
2019-04-14T09:30:18.563Z,102110.75
2019-04-14T09:32:28.988Z,102115.88
2019-04-14T09:34:35.447Z,102116.23
2019-04-14T09:36:42.100Z,102117.37
2019-04-14T09:38:49.788Z,102120.84
2019-04-14T09:41:03.539Z,102122.77
2019-04-14T09:43:14.826Z,102123.20
2019-04-14T09:45:23.957Z,102136.88
2019-04-14T09:47:31.236Z,102137.02
2019-04-14T09:49:40.969Z,102135.90
2019-04-14T09:51:47.619Z,102142.39
2019-04-14T09:53:55.045Z,102135.06
2019-04-14T09:56:01.896Z,102129.28
2019-04-14T09:58:09.999Z,102132.19
2019-04-14T10:00:17.283Z,102128.85
2019-04-14T10:02:24.799Z,102128.67
2019-04-14T10:04:31.329Z,102133.02
2019-04-14T10:06:40.796Z,102125.88
2019-04-14T10:08:46.429Z,102116.38
2019-04-14T10:10:53.200Z,102122.13
2019-04-14T10:12:59.866Z,102128.95
2019-04-14T10:15:07.930Z,102119.67
2019-04-14T10:17:15.844Z,102130.16
2019-04-14T10:19:22.784Z,102127.67
2019-04-14T10:21:30.987Z,102122.97
2019-04-14T10:23:39.764Z,102134.81
2019-04-14T10:25:47.928Z,102126.48
2019-04-14T10:27:55.479Z,102125.16
2019-04-14T10:30:02.699Z,102126.69
2019-04-14T10:32:10.839Z,102130.35
2019-04-14T10:34:17.587Z,102133.20
2019-04-14T10:36:24.379Z,102135.64
2019-04-14T10:38:31.882Z,102127.41
2019-04-14T10:40:39.671Z,102115.91
2019-04-14T10:42:47.568Z,102124.47
2019-04-14T10:44:54.835Z,102121.24
2019-04-14T10:47:03.391Z,102126.45
2019-04-14T10:49:10.651Z,102128.17
2019-04-14T10:51:29.157Z,102127.44
2019-04-14T10:53:26.235Z,102115.53
2019-04-14T10:55:33.312Z,102119.39
2019-04-14T10:57:39.990Z,102117.09
2019-04-14T10:59:46.855Z,102108.47
2019-04-14T11:01:53.680Z,102107.70
2019-04-14T11:04:00.820Z,102110.45
2019-04-14T11:06:09.342Z,102112.92
2019-04-14T11:08:16.884Z,102117.75
2019-04-14T11:10:23.906Z,102109.70
2019-04-14T11:12:30.704Z,102107.91
2019-04-14T11:14:40.821Z,102103.37
2019-04-14T11:16:47.604Z,102115.92
2019-04-14T11:18:54.264Z,102107.16
2019-04-14T11:21:01.687Z,102102.75
2019-04-14T11:23:12.376Z,102104.90
2019-04-14T11:25:19.194Z,102099.88
2019-04-14T11:27:26.001Z,102102.23
2019-04-14T11:29:32.932Z,102103.92
2019-04-14T11:31:51.795Z,102101.20
2019-04-14T11:34:02.106Z,102094.77
2019-04-14T11:36:11.675Z,102095.72
2019-04-14T11:38:26.357Z,102088.36
2019-04-14T11:40:50.623Z,102087.19
2019-04-14T11:42:58.340Z,102088.30
2019-04-14T11:45:06.879Z,102090.42
2019-04-14T11:47:25.373Z,102083.99
2019-04-14T11:49:31.855Z,102089.19
2019-04-14T11:51:55.477Z,102079.56
2019-04-14T11:54:05.265Z,102083.66
2019-04-14T11:56:12.502Z,102082.77
2019-04-14T11:58:19.763Z,102090.48
2019-04-14T12:00:37.964Z,102086.42
2019-04-14T12:02:55.713Z,102086.42
2019-04-14T12:05:07.182Z,102083.48
2019-04-14T12:07:16.295Z,102081.61
2019-04-14T12:09:27.995Z,102088.70
2019-04-14T12:11:36.473Z,102085.12
2019-04-14T12:13:43.374Z,102100.22
2019-04-14T12:15:50.273Z,102083.98
2019-04-14T12:17:57.424Z,102083.90
2019-04-14T12:20:05.533Z,102085.68
2019-04-14T12:22:14.264Z,102088.31
2019-04-14T12:24:22.372Z,102087.63
2019-04-14T12:26:29.648Z,102088.08
2019-04-14T12:28:38.301Z,102075.16
2019-04-14T12:30:47.218Z,102068.24
2019-04-14T12:32:53.654Z,102074.92
2019-04-14T12:35:00.529Z,102077.19
2019-04-14T12:37:08.535Z,102083.32
2019-04-14T12:39:23.036Z,102081.55
2019-04-14T12:41:35.441Z,102083.12
2019-04-14T12:43:54.261Z,102082.75
2019-04-14T12:46:08.284Z,102080.68
2019-04-14T12:48:25.604Z,102085.08
2019-04-14T12:50:33.813Z,102082.95
2019-04-14T12:52:40.501Z,102075.92
2019-04-14T12:54:47.670Z,102090.45
2019-04-14T12:56:54.244Z,102078.66
2019-04-14T12:59:05.951Z,102076.95
2019-04-14T13:01:18.056Z,102072.28
2019-04-14T13:03:26.323Z,102070.70
2019-04-14T13:05:32.775Z,102072.86
2019-04-14T13:07:39.875Z,102080.23
2019-04-14T13:09:48.192Z,102072.17
2019-04-14T13:11:56.670Z,102076.66
2019-04-14T13:16:16.593Z,102074.06
2019-04-14T13:18:24.231Z,102071.15
2019-04-14T13:22:38.566Z,102066.47
2019-04-14T13:24:47.146Z,102059.95
2019-04-14T13:26:53.706Z,102060.22
2019-04-14T13:29:03.211Z,102067.71
2019-04-14T13:31:10.338Z,102066.95
2019-04-14T13:33:18.818Z,102071.03
2019-04-14T13:35:29.388Z,102064.48
2019-04-14T13:37:39.379Z,102065.88
2019-04-14T13:39:46.646Z,102054.20
2019-04-14T13:41:53.819Z,102064.16
2019-04-14T13:44:04.318Z,102062.31
2019-04-14T13:46:13.151Z,102064.55
2019-04-14T13:48:23.990Z,102062.06
2019-04-14T13:50:30.955Z,102064.57
2019-04-14T13:52:46.533Z,102070.70
2019-04-14T13:54:49.741Z,102061.48
2019-04-14T13:56:58.878Z,102059.73
2019-04-14T13:59:06.020Z,102057.62
2019-04-14T14:01:14.169Z,102055.41
2019-04-14T14:03:23.172Z,102065.74
2019-04-14T14:05:31.159Z,102056.06
2019-04-14T14:07:37.930Z,102057.88
2019-04-14T14:09:45.360Z,102045.20
2019-04-14T14:11:53.237Z,102055.59
2019-04-14T14:14:02.140Z,102051.16
2019-04-14T14:16:18.347Z,102044.23
2019-04-14T14:18:37.387Z,102052.32
2019-04-14T14:20:45.125Z,102040.17
2019-04-14T14:23:01.025Z,102046.02
2019-04-14T14:25:09.686Z,102049.16
2019-04-14T14:27:19.124Z,102054.14
2019-04-14T14:29:26.941Z,102051.89
2019-04-14T14:31:33.852Z,102046.52
2019-04-14T14:33:40.714Z,102047.33
2019-04-14T14:35:47.246Z,102052.08
2019-04-14T14:37:55.876Z,102044.81
2019-04-14T14:40:04.500Z,102064.63
2019-04-14T14:42:12.377Z,102040.28
2019-04-14T14:44:21.605Z,102048.84
2019-04-14T14:46:45.118Z,102047.77
2019-04-14T14:49:05.576Z,102048.88
2019-04-14T14:51:17.465Z,102051.88
2019-04-14T14:53:28.231Z,102040.23
2019-04-14T14:55:39.156Z,102045.82
2019-04-14T14:57:46.050Z,102051.82
2019-04-14T14:59:54.920Z,102038.33
2019-04-14T15:02:05.401Z,102047.71
2019-04-14T15:04:13.739Z,102043.02
2019-04-14T15:06:26.180Z,102041.94
2019-04-14T15:08:34.502Z,102042.21
2019-04-14T15:10:46.347Z,102041.48
2019-04-14T15:12:57.775Z,102033.79
2019-04-14T15:15:10.329Z,102047.36
2019-04-14T15:17:22.390Z,102050.42
2019-04-14T15:19:33.379Z,102053.15
2019-04-14T15:21:44.383Z,102044.55
2019-04-14T15:23:54.116Z,102044.88
2019-04-14T15:26:01.790Z,102049.62
2019-04-14T15:28:10.035Z,102039.42
2019-04-14T15:30:19.449Z,102048.77
2019-04-14T15:32:27.643Z,102049.05
2019-04-14T15:34:37.946Z,102049.97
2019-04-14T15:36:46.219Z,102050.09
2019-04-14T15:38:58.769Z,102044.34
2019-04-14T15:41:08.060Z,102044.64
2019-04-14T15:43:16.451Z,102045.36
2019-04-14T15:45:41.759Z,102044.88
2019-04-14T15:47:49.476Z,102044.55
2019-04-14T15:49:57.180Z,102039.56
2019-04-14T15:52:04.446Z,102047.59
2019-04-14T15:54:14.310Z,102047.52
2019-04-14T15:56:51.364Z,102049.23
2019-04-14T15:59:24.277Z,102049.87
2019-04-14T16:01:41.710Z,102050.20
2019-04-14T16:03:55.638Z,102052.42
2019-04-14T16:06:09.002Z,102038.98
2019-04-14T16:08:27.875Z,102050.42
2019-04-14T16:10:44.760Z,102047.34
2019-04-14T16:12:54.168Z,102038.61
2019-04-14T16:15:06.174Z,102054.44
2019-04-14T16:17:26.913Z,102051.87
2019-04-14T16:19:49.533Z,102051.41
2019-04-14T16:22:01.943Z,102050.03
2019-04-14T16:24:16.819Z,102058.77
2019-04-14T16:26:26.539Z,102065.09
2019-04-14T16:28:42.224Z,102065.80
2019-04-14T16:30:56.944Z,102055.50
2019-04-14T16:33:28.107Z,102063.60
2019-04-14T16:35:42.080Z,102069.69
2019-04-14T16:37:58.030Z,102060.39
2019-04-14T16:40:14.281Z,102066.17
2019-04-14T16:42:29.231Z,102066.48
2019-04-14T16:44:41.758Z,102064.28
2019-04-14T16:46:51.794Z,102068.23
2019-04-14T16:49:00.946Z,102074.77
2019-04-14T16:51:10.393Z,102066.63
2019-04-14T16:53:23.596Z,102073.96
2019-04-14T16:55:35.969Z,102070.44
2019-04-14T16:57:51.629Z,102074.32
2019-04-14T17:00:01.190Z,102083.50
2019-04-14T17:02:13.385Z,102082.41
2019-04-14T17:04:22.137Z,102079.02
2019-04-14T17:06:29.056Z,102086.03
2019-04-14T17:08:39.875Z,102085.44
2019-04-14T17:10:49.848Z,102087.75
2019-04-14T17:13:01.057Z,102093.94
2019-04-14T17:15:23.668Z,102091.52
2019-04-14T17:17:41.047Z,102091.01
2019-04-14T17:19:57.165Z,102097.78
2019-04-14T17:22:12.128Z,102101.11
2019-04-14T17:24:21.540Z,102089.05
2019-04-14T17:26:35.745Z,102101.89
2019-04-14T17:28:52.755Z,102109.89
2019-04-14T17:31:11.605Z,102103.43
2019-04-14T17:33:27.030Z,102107.01
2019-04-14T17:35:42.680Z,102116.74
2019-04-14T17:37:51.764Z,102115.06
2019-04-14T17:40:02.138Z,102126.07
2019-04-14T17:42:12.996Z,102120.45
2019-04-14T17:44:28.798Z,102120.98
2019-04-14T17:46:55.117Z,102136.31
2019-04-14T17:49:03.867Z,102128.50
2019-04-14T17:51:12.724Z,102133.37
2019-04-14T17:53:24.158Z,102134.70
2019-04-14T17:55:50.249Z,102144.40
2019-04-14T17:58:00.708Z,102148.84
2019-04-14T18:00:25.656Z,102151.09
2019-04-14T18:02:48.856Z,102153.76
2019-04-14T18:05:00.667Z,102156.90
2019-04-14T18:07:16.947Z,102159.53
2019-04-14T18:09:28.509Z,102160.45
2019-04-14T18:11:43.625Z,102169.23
2019-04-14T18:14:03.358Z,102171.91
2019-04-14T18:16:18.554Z,102178.50
2019-04-14T18:18:27.215Z,102183.34
2019-04-14T18:20:38.646Z,102175.06
2019-04-14T18:22:45.955Z,102196.05
2019-04-14T18:24:54.146Z,102196.08
2019-04-14T18:27:01.494Z,102197.39
2019-04-14T18:29:26.854Z,102200.45
2019-04-14T18:31:42.127Z,102200.03
2019-04-14T18:34:07.564Z,102201.31
2019-04-14T18:36:16.606Z,102206.53
2019-04-14T18:38:32.556Z,102214.81
2019-04-14T18:40:47.327Z,102224.83
2019-04-14T18:43:09.005Z,102224.36
2019-04-14T18:45:18.972Z,102227.39
2019-04-14T18:47:29.434Z,102221.70
2019-04-14T18:49:41.084Z,102235.64
2019-04-14T18:51:53.156Z,102232.55
2019-04-14T18:54:11.078Z,102238.20
2019-04-14T18:56:26.237Z,102246.45
2019-04-14T18:58:37.344Z,102245.98
2019-04-14T19:00:46.200Z,102246.39
2019-04-14T19:03:05.683Z,102252.45
2019-04-14T19:05:12.703Z,102251.56
2019-04-14T19:07:21.619Z,102255.86
2019-04-14T19:09:29.255Z,102254.54
2019-04-14T19:11:39.659Z,102252.77
2019-04-14T19:13:51.619Z,102259.67
2019-04-14T19:16:06.602Z,102258.73
2019-04-14T19:18:19.981Z,102257.39
2019-04-14T19:20:26.799Z,102269.98
2019-04-14T19:22:33.871Z,102269.45
2019-04-14T19:24:40.628Z,102269.41
2019-04-14T19:26:49.086Z,102273.30
2019-04-14T19:28:55.819Z,102274.98
2019-04-14T19:31:02.511Z,102271.08
2019-04-14T19:33:11.883Z,102276.69
2019-04-14T19:35:20.717Z,102276.64
2019-04-14T19:37:29.158Z,102270.89
2019-04-14T19:39:36.035Z,102272.11
2019-04-14T19:41:42.655Z,102277.70
2019-04-14T19:43:51.712Z,102279.45
2019-04-14T19:45:58.679Z,102281.16
2019-04-14T19:48:07.115Z,102274.13
2019-04-14T19:50:14.475Z,102281.00
2019-04-14T19:52:23.556Z,102282.67
2019-04-14T19:54:30.268Z,102286.09
2019-04-14T19:56:37.157Z,102288.22
2019-04-14T19:58:43.823Z,102286.48
2019-04-14T20:00:51.005Z,102296.75
2019-04-14T20:02:58.282Z,102299.78
2019-04-14T20:05:06.835Z,102297.98
2019-04-14T20:07:15.112Z,102305.38
2019-04-14T20:09:21.890Z,102301.47
2019-04-14T20:11:28.731Z,102305.34
2019-04-14T20:13:37.048Z,102305.73
2019-04-14T20:15:49.565Z,102306.95
2019-04-14T20:17:58.068Z,102303.02
2019-04-14T20:20:19.482Z,102309.53
2019-04-14T20:22:34.599Z,102317.27
2019-04-14T20:24:49.010Z,102317.61
2019-04-14T20:27:05.415Z,102314.93
2019-04-14T20:29:13.608Z,102321.83
2019-04-14T20:31:22.049Z,102322.63
2019-04-14T20:33:29.486Z,102332.49
2019-04-14T20:35:36.669Z,102336.78
2019-04-14T20:37:43.147Z,102337.62
2019-04-14T20:39:50.017Z,102334.59
2019-04-14T20:41:58.065Z,102329.77
2019-04-14T20:44:04.596Z,102341.44
2019-04-14T20:46:14.422Z,102343.12
2019-04-14T20:48:21.471Z,102340.04
2019-04-14T20:50:27.987Z,102337.45
2019-04-14T20:52:34.554Z,102335.26
2019-04-14T20:54:41.339Z,102344.75
2019-04-14T20:56:49.531Z,102344.66
2019-04-14T20:58:56.094Z,102339.40
2019-04-14T21:01:03.171Z,102347.12
2019-04-14T21:03:11.188Z,102346.14
2019-04-14T21:05:35.751Z,102351.30
2019-04-14T21:07:44.170Z,102352.13
2019-04-14T21:09:59.537Z,102345.63
2019-04-14T21:12:17.280Z,102349.91
2019-04-14T21:14:32.036Z,102353.28
2019-04-14T21:16:52.833Z,102353.64
2019-04-14T21:19:00.936Z,102357.45
2019-04-14T21:21:08.842Z,102358.28
2019-04-14T21:23:29.226Z,102354.33
2019-04-14T21:26:00.757Z,102362.55
2019-04-14T21:28:07.982Z,102359.85
2019-04-14T21:32:33.901Z,102364.48
2019-04-14T21:34:47.128Z,102360.09
2019-04-14T21:36:58.508Z,102365.24
2019-04-14T21:39:06.847Z,102366.95
2019-04-14T21:41:31.833Z,102374.25
2019-04-14T21:43:39.213Z,102369.45
2019-04-14T21:45:45.817Z,102370.75
2019-04-14T21:47:56.216Z,102378.91
2019-04-14T21:50:03.064Z,102372.77
2019-04-14T21:52:09.369Z,102368.81
2019-04-14T21:54:16.867Z,102377.80
2019-04-14T21:56:26.612Z,102376.81
2019-04-14T21:58:48.094Z,102380.59
2019-04-14T22:01:34.202Z,102386.61
2019-04-14T22:03:52.536Z,102384.31
2019-04-14T22:06:07.915Z,102382.05
2019-04-14T22:08:19.525Z,102383.30
2019-04-14T22:10:30.785Z,102383.23
2019-04-14T22:12:38.164Z,102388.31
2019-04-14T22:14:46.806Z,102391.27
2019-04-14T22:16:56.490Z,102401.12
2019-04-14T22:19:05.761Z,102390.60
2019-04-14T22:21:14.246Z,102396.62
2019-04-14T22:23:24.305Z,102392.67
2019-04-14T22:25:34.975Z,102393.13
2019-04-14T22:27:44.219Z,102399.09
2019-04-14T22:29:50.904Z,102396.83
2019-04-14T22:31:59.393Z,102396.30
2019-04-14T22:34:06.539Z,102397.46
2019-04-14T22:36:13.041Z,102402.52
2019-04-14T22:38:19.601Z,102404.10
2019-04-14T22:40:25.978Z,102400.66
2019-04-14T22:42:32.645Z,102402.30
2019-04-14T22:44:39.217Z,102409.57
2019-04-14T22:46:45.773Z,102408.20
2019-04-14T22:48:52.752Z,102407.72
2019-04-14T22:50:59.575Z,102402.40
2019-04-14T22:53:06.299Z,102401.84
2019-04-14T22:55:13.171Z,102407.78
2019-04-14T22:57:19.721Z,102403.88
2019-04-14T22:59:26.532Z,102405.92
2019-04-14T23:01:37.870Z,102407.63
2019-04-14T23:04:02.287Z,102406.80
2019-04-14T23:06:22.784Z,102413.77
2019-04-14T23:08:38.154Z,102408.03
2019-04-14T23:11:02.837Z,102410.89
2019-04-14T23:13:22.715Z,102409.85
2019-04-14T23:15:41.162Z,102417.06
2019-04-14T23:18:01.241Z,102416.05
2019-04-14T23:20:12.088Z,102412.57
2019-04-14T23:22:20.103Z,102425.55
2019-04-14T23:24:28.229Z,102415.84
2019-04-14T23:26:35.400Z,102417.11
2019-04-14T23:28:42.280Z,102407.62
2019-04-14T23:30:48.734Z,102416.23
2019-04-14T23:32:55.506Z,102418.33
2019-04-14T23:35:03.109Z,102413.58
2019-04-14T23:37:09.675Z,102414.77
2019-04-14T23:39:16.444Z,102415.16
2019-04-14T23:41:23.025Z,102414.22
2019-04-14T23:43:29.468Z,102407.27
2019-04-14T23:45:36.031Z,102410.33
2019-04-14T23:47:44.443Z,102411.16
2019-04-14T23:49:51.231Z,102411.47
2019-04-14T23:51:57.782Z,102409.20
2019-04-14T23:54:04.463Z,102409.06
2019-04-14T23:56:10.924Z,102407.33
2019-04-14T23:58:17.487Z,102413.75
